Time,TemperatureF,DewpointF,PressureIn,WindDirection,WindDirectionDegrees,WindSpeedMPH,WindSpeedGustMPH,Humidity,HourlyPrecipIn,Conditions,Clouds,dailyrainin,SoftwareType,DateUTC
2013-07-01 00:04:00,65.3,59.0,29.92,NNW,346,2.0,5.0,80,0.00,,,0.00,Wunderground v.1.15,2013-07-01 05:04:00,
2013-07-01 00:10:00,65.6,59.3,29.92,NNW,348,1.0,3.0,80,0.00,,,0.00,Wunderground v.1.15,2013-07-01 05:10:00,
2013-07-01 00:16:00,66.0,59.3,29.92,NNW,348,2.0,3.0,79,0.00,,,0.00,Wunderground v.1.15,2013-07-01 05:16:00,
2013-07-01 00:22:00,66.1,59.4,29.91,NNW,338,0.0,2.0,79,0.00,,,0.00,Wunderground v.1.15,2013-07-01 05:22:00,
2013-07-01 00:27:00,66.1,59.4,29.91,NNW,346,0.0,3.0,79,0.00,,,0.00,Wunderground v.1.15,2013-07-01 05:27:00,
2013-07-01 00:32:00,66.0,59.3,29.91,NNW,344,2.0,5.0,79,0.00,,,0.00,Wunderground v.1.15,2013-07-01 05:32:00,
2013-07-01 00:38:00,66.0,59.3,29.92,NNW,344,3.0,5.0,79,0.00,,,0.00,Wunderground v.1.15,2013-07-01 05:38:00,
2013-07-01 00:43:00,66.0,59.3,29.92,NNW,344,1.0,3.0,79,0.00,,,0.00,Wunderground v.1.15,2013-07-01 05:43:00,
2013-07-01 00:48:00,65.8,59.5,29.91,NNW,344,2.0,4.0,80,0.00,,,0.00,Wunderground v.1.15,2013-07-01 05:48:00,
2013-07-01 00:54:00,65.8,59.5,29.91,NNW,344,2.0,3.0,80,0.00,,,0.00,Wunderground v.1.15,2013-07-01 05:54:00,
2013-07-01 00:59:00,65.8,59.5,29.91,North,350,3.0,5.0,80,0.00,,,0.00,Wunderground v.1.15,2013-07-01 05:59:00,
2013-07-01 01:05:00,65.8,59.5,29.91,North,350,0.0,3.0,80,0.00,,,0.00,Wunderground v.1.15,2013-07-01 06:05:00,
2013-07-01 01:10:00,65.6,59.3,29.91,North,350,0.0,1.0,80,0.00,,,0.00,Wunderground v.1.15,2013-07-01 06:10:00,
2013-07-01 01:15:00,65.6,59.6,29.91,North,350,3.0,3.0,81,0.00,,,0.00,Wunderground v.1.15,2013-07-01 06:15:00,
2013-07-01 01:20:00,65.5,59.5,29.91,North,350,0.0,1.0,81,0.00,,,0.00,Wunderground v.1.15,2013-07-01 06:20:00,
2013-07-01 01:28:00,65.3,59.3,29.91,North,350,1.0,2.0,81,0.00,,,0.00,Wunderground v.1.15,2013-07-01 06:28:00,
2013-07-01 01:34:00,65.2,59.6,29.91,North,350,0.0,1.0,82,0.00,,,0.00,Wunderground v.1.15,2013-07-01 06:34:00,
2013-07-01 01:40:00,65.0,59.4,29.91,North,350,0.0,3.0,82,0.00,,,0.00,Wunderground v.1.15,2013-07-01 06:40:00,
2013-07-01 01:45:00,64.8,59.2,29.91,North,350,0.0,1.0,82,0.00,,,0.00,Wunderground v.1.15,2013-07-01 06:45:00,
2013-07-01 01:50:00,64.8,59.5,29.91,North,350,0.0,1.0,83,0.00,,,0.00,Wunderground v.1.15,2013-07-01 06:50:00,
2013-07-01 01:56:00,64.7,59.4,29.91,North,350,0.0,1.0,83,0.00,,,0.00,Wunderground v.1.15,2013-07-01 06:56:00,
2013-07-01 02:01:00,64.5,59.2,29.91,North,350,0.0,0.0,83,0.00,,,0.00,Wunderground v.1.15,2013-07-01 07:01:00,
2013-07-01 02:06:00,64.3,59.4,29.90,North,350,0.0,0.0,84,0.00,,,0.00,Wunderground v.1.15,2013-07-01 07:06:00,
2013-07-01 02:11:00,64.0,59.1,29.90,North,350,0.0,1.0,84,0.00,,,0.00,Wunderground v.1.15,2013-07-01 07:11:00,
2013-07-01 02:16:00,64.0,59.1,29.90,North,350,0.0,1.0,84,0.00,,,0.00,Wunderground v.1.15,2013-07-01 07:16:00,
2013-07-01 02:21:00,63.9,59.3,29.91,North,350,0.0,0.0,85,0.00,,,0.00,Wunderground v.1.15,2013-07-01 07:21:00,
2013-07-01 02:26:00,63.9,59.6,29.91,North,350,0.0,4.0,86,0.00,,,0.00,Wunderground v.1.15,2013-07-01 07:26:00,
2013-07-01 02:32:00,63.9,59.6,29.91,North,350,2.0,3.0,86,0.00,,,0.00,Wunderground v.1.15,2013-07-01 07:32:00,
2013-07-01 02:36:00,63.9,59.6,29.91,North,350,1.0,3.0,86,0.00,,,0.00,Wunderground v.1.15,2013-07-01 07:36:00,
2013-07-01 02:42:00,63.9,59.6,29.91,North,350,3.0,4.0,86,0.00,,,0.00,Wunderground v.1.15,2013-07-01 07:42:00,
2013-07-01 02:47:00,64.0,59.4,29.91,North,350,1.0,4.0,85,0.00,,,0.00,Wunderground v.1.15,2013-07-01 07:47:00,
2013-07-01 02:52:00,64.0,59.4,29.91,North,350,0.0,1.0,85,0.00,,,0.00,Wunderground v.1.15,2013-07-01 07:52:00,
2013-07-01 02:57:00,64.0,59.4,29.91,North,350,0.0,1.0,85,0.00,,,0.00,Wunderground v.1.15,2013-07-01 07:57:00,
2013-07-01 03:02:00,63.9,59.3,29.91,North,350,0.0,2.0,85,0.00,,,0.00,Wunderground v.1.15,2013-07-01 08:02:00,
2013-07-01 03:07:00,63.9,59.3,29.91,North,350,3.0,3.0,85,0.00,,,0.00,Wunderground v.1.15,2013-07-01 08:07:00,
2013-07-01 03:18:00,63.9,59.3,29.91,North,350,0.0,3.0,85,0.00,,,0.00,Wunderground v.1.15,2013-07-01 08:18:00,
2013-07-01 03:24:00,63.7,59.1,29.91,North,350,0.0,1.0,85,0.00,,,0.00,Wunderground v.1.15,2013-07-01 08:24:00,
2013-07-01 03:29:00,63.7,59.1,29.91,North,350,2.0,5.0,85,0.00,,,0.00,Wunderground v.1.15,2013-07-01 08:29:00,
2013-07-01 03:34:00,63.7,59.1,29.91,North,350,0.0,2.0,85,0.00,,,0.00,Wunderground v.1.15,2013-07-01 08:34:00,
2013-07-01 03:39:00,63.7,59.1,29.91,North,350,1.0,3.0,85,0.00,,,0.00,Wunderground v.1.15,2013-07-01 08:39:00,
2013-07-01 03:44:00,63.5,58.9,29.91,North,350,0.0,3.0,85,0.00,,,0.00,Wunderground v.1.15,2013-07-01 08:44:00,
2013-07-01 03:49:00,63.5,59.2,29.92,North,350,0.0,3.0,86,0.00,,,0.00,Wunderground v.1.15,2013-07-01 08:49:00,
2013-07-01 03:54:00,63.4,59.1,29.92,North,350,0.0,0.0,86,0.00,,,0.00,Wunderground v.1.15,2013-07-01 08:54:00,
2013-07-01 03:59:00,63.2,58.9,29.92,North,350,0.0,2.0,86,0.00,,,0.00,Wunderground v.1.15,2013-07-01 08:59:00,
2013-07-01 04:04:00,63.1,58.8,29.92,North,350,0.0,1.0,86,0.00,,,0.00,Wunderground v.1.15,2013-07-01 09:04:00,
2013-07-01 04:09:00,62.9,58.6,29.92,North,350,0.0,1.0,86,0.00,,,0.00,Wunderground v.1.15,2013-07-01 09:09:00,
2013-07-01 04:14:00,62.7,58.8,29.92,North,350,3.0,3.0,87,0.00,,,0.00,Wunderground v.1.15,2013-07-01 09:14:00,
2013-07-01 04:19:00,62.7,58.8,29.92,North,350,0.0,3.0,87,0.00,,,0.00,Wunderground v.1.15,2013-07-01 09:19:00,
2013-07-01 04:24:00,62.6,58.7,29.92,North,350,0.0,0.0,87,0.00,,,0.00,Wunderground v.1.15,2013-07-01 09:24:00,
2013-07-01 04:29:00,62.4,58.5,29.92,North,350,0.0,0.0,87,0.00,,,0.00,Wunderground v.1.15,2013-07-01 09:29:00,
2013-07-01 04:34:00,62.3,58.4,29.92,North,350,0.0,2.0,87,0.00,,,0.00,Wunderground v.1.15,2013-07-01 09:34:00,
2013-07-01 04:39:00,62.1,58.5,29.92,North,350,0.0,2.0,88,0.00,,,0.00,Wunderground v.1.15,2013-07-01 09:39:00,
2013-07-01 04:45:00,62.0,58.4,29.92,North,350,0.0,3.0,88,0.00,,,0.00,Wunderground v.1.15,2013-07-01 09:45:00,
2013-07-01 04:50:00,62.0,58.4,29.92,North,350,0.0,0.0,88,0.00,,,0.00,Wunderground v.1.15,2013-07-01 09:50:00,
2013-07-01 04:55:00,61.6,58.0,29.92,North,350,0.0,0.0,88,0.00,,,0.00,Wunderground v.1.15,2013-07-01 09:55:00,
2013-07-01 05:00:00,61.5,57.9,29.92,North,350,0.0,0.0,88,0.00,,,0.00,Wunderground v.1.15,2013-07-01 10:00:00,
2013-07-01 05:05:00,61.2,57.6,29.93,North,350,0.0,0.0,88,0.00,,,0.00,Wunderground v.1.15,2013-07-01 10:05:00,
2013-07-01 05:10:00,60.7,57.4,29.93,North,350,0.0,0.0,89,0.00,,,0.00,Wunderground v.1.15,2013-07-01 10:10:00,
2013-07-01 05:15:00,60.5,57.2,29.93,North,350,0.0,0.0,89,0.00,,,0.00,Wunderground v.1.15,2013-07-01 10:15:00,
2013-07-01 05:19:00,60.7,57.7,29.93,North,350,0.0,0.0,90,0.00,,,0.00,Wunderground v.1.15,2013-07-01 10:19:00,
2013-07-01 05:24:00,60.7,57.7,29.93,North,350,0.0,2.0,90,0.00,,,0.00,Wunderground v.1.15,2013-07-01 10:24:00,
2013-07-01 05:30:00,60.9,57.9,29.93,North,350,0.0,1.0,90,0.00,,,0.00,Wunderground v.1.15,2013-07-01 10:30:00,
2013-07-01 05:35:00,60.9,57.9,29.94,North,350,0.0,3.0,90,0.00,,,0.00,Wunderground v.1.15,2013-07-01 10:35:00,
2013-07-01 05:40:00,61.0,58.4,29.94,North,350,0.0,0.0,91,0.00,,,0.00,Wunderground v.1.15,2013-07-01 10:40:00,
2013-07-01 05:46:00,61.0,58.4,29.94,North,350,1.0,1.0,91,0.00,,,0.00,Wunderground v.1.15,2013-07-01 10:46:00,
2013-07-01 05:51:00,61.2,58.6,29.94,North,350,2.0,4.0,91,0.00,,,0.00,Wunderground v.1.15,2013-07-01 10:51:00,
2013-07-01 05:56:00,61.2,58.6,29.94,North,350,0.0,4.0,91,0.00,,,0.00,Wunderground v.1.15,2013-07-01 10:56:00,
2013-07-01 06:01:00,61.2,58.6,29.94,North,350,0.0,1.0,91,0.00,,,0.00,Wunderground v.1.15,2013-07-01 11:01:00,
2013-07-01 06:06:00,61.2,58.2,29.95,North,350,0.0,2.0,90,0.00,,,0.00,Wunderground v.1.15,2013-07-01 11:06:00,
2013-07-01 06:11:00,61.2,58.2,29.95,North,350,2.0,3.0,90,0.00,,,0.00,Wunderground v.1.15,2013-07-01 11:11:00,
2013-07-01 06:16:00,61.2,58.2,29.95,North,350,0.0,3.0,90,0.00,,,0.00,Wunderground v.1.15,2013-07-01 11:16:00,
2013-07-01 06:21:00,61.2,58.6,29.95,North,350,4.0,4.0,91,0.00,,,0.00,Wunderground v.1.15,2013-07-01 11:21:00,
2013-07-01 06:26:00,61.3,58.7,29.95,North,350,3.0,4.0,91,0.00,,,0.00,Wunderground v.1.15,2013-07-01 11:26:00,
2013-07-01 06:31:00,61.3,58.7,29.95,North,350,2.0,5.0,91,0.00,,,0.00,Wunderground v.1.15,2013-07-01 11:31:00,
2013-07-01 06:36:00,61.5,58.5,29.95,North,350,4.0,5.0,90,0.00,,,0.00,Wunderground v.1.15,2013-07-01 11:36:00,
2013-07-01 06:41:00,61.8,58.8,29.95,North,350,2.0,5.0,90,0.00,,,0.00,Wunderground v.1.15,2013-07-01 11:41:00,
2013-07-01 06:46:00,62.0,59.0,29.95,NNW,348,5.0,6.0,90,0.00,,,0.00,Wunderground v.1.15,2013-07-01 11:46:00,
2013-07-01 06:51:00,62.1,59.1,29.95,NNW,348,1.0,3.0,90,0.00,,,0.00,Wunderground v.1.15,2013-07-01 11:51:00,
2013-07-01 06:56:00,62.3,59.3,29.95,NNW,348,1.0,4.0,90,0.00,,,0.00,Wunderground v.1.15,2013-07-01 11:56:00,
2013-07-01 07:01:00,62.4,59.1,29.95,NNW,347,3.0,5.0,89,0.00,,,0.00,Wunderground v.1.15,2013-07-01 12:01:00,
2013-07-01 07:06:00,62.6,59.3,29.96,North,350,0.0,7.0,89,0.00,,,0.00,Wunderground v.1.15,2013-07-01 12:06:00,
2013-07-01 07:11:00,62.7,59.1,29.96,North,350,0.0,2.0,88,0.00,,,0.00,Wunderground v.1.15,2013-07-01 12:11:00,
2013-07-01 07:16:00,62.9,59.3,29.96,NNW,347,2.0,6.0,88,0.00,,,0.00,Wunderground v.1.15,2013-07-01 12:16:00,
2013-07-01 07:21:00,63.2,59.3,29.96,NNW,343,4.0,4.0,87,0.00,,,0.00,Wunderground v.1.15,2013-07-01 12:21:00,
2013-07-01 07:26:00,63.4,59.5,29.96,NNW,344,2.0,6.0,87,0.00,,,0.00,Wunderground v.1.15,2013-07-01 12:26:00,
2013-07-01 07:31:00,63.5,59.2,29.96,North,355,2.0,4.0,86,0.00,,,0.00,Wunderground v.1.15,2013-07-01 12:31:00,
2013-07-01 07:37:00,63.9,59.3,29.96,NNW,348,4.0,4.0,85,0.00,,,0.00,Wunderground v.1.15,2013-07-01 12:37:00,
2013-07-01 07:42:00,64.2,59.6,29.96,NNW,347,1.0,5.0,85,0.00,,,0.00,Wunderground v.1.15,2013-07-01 12:42:00,
2013-07-01 07:47:00,64.3,59.7,29.96,North,349,2.0,5.0,85,0.00,,,0.00,Wunderground v.1.15,2013-07-01 12:47:00,
2013-07-01 07:52:00,64.7,59.4,29.96,NNW,344,4.0,5.0,83,0.00,,,0.00,Wunderground v.1.15,2013-07-01 12:52:00,
2013-07-01 07:57:00,65.0,59.7,29.96,NNW,338,1.0,7.0,83,0.00,,,0.00,Wunderground v.1.15,2013-07-01 12:57:00,
2013-07-01 08:02:00,65.2,59.6,29.96,NNW,336,4.0,7.0,82,0.00,,,0.00,Wunderground v.1.15,2013-07-01 13:02:00,
2013-07-01 08:07:00,65.5,59.5,29.96,NNW,348,2.0,7.0,81,0.00,,,0.00,Wunderground v.1.15,2013-07-01 13:07:00,
2013-07-01 08:12:00,65.6,59.6,29.96,North,355,3.0,5.0,81,0.00,,,0.00,Wunderground v.1.15,2013-07-01 13:12:00,
2013-07-01 08:17:00,66.0,59.3,29.96,NNW,342,2.0,9.0,79,0.00,,,0.00,Wunderground v.1.15,2013-07-01 13:17:00,
2013-07-01 08:22:00,66.1,59.0,29.97,NE,42,3.0,4.0,78,0.00,,,0.00,Wunderground v.1.15,2013-07-01 13:22:00,
2013-07-01 08:27:00,66.4,59.3,29.97,North,355,1.0,9.0,78,0.00,,,0.00,Wunderground v.1.15,2013-07-01 13:27:00,
2013-07-01 08:33:00,66.6,58.8,29.97,NNW,346,2.0,7.0,76,0.00,,,0.00,Wunderground v.1.15,2013-07-01 13:33:00,
2013-07-01 08:38:00,66.9,58.7,29.97,NNW,344,3.0,7.0,75,0.00,,,0.00,Wunderground v.1.15,2013-07-01 13:38:00,
2013-07-01 08:43:00,67.4,58.8,29.97,NNW,346,0.0,8.0,74,0.00,,,0.00,Wunderground v.1.15,2013-07-01 13:43:00,
2013-07-01 08:48:00,67.8,58.8,29.97,NNW,345,4.0,9.0,73,0.00,,,0.00,Wunderground v.1.15,2013-07-01 13:48:00,
2013-07-01 08:53:00,68.1,58.7,29.97,NNE,23,2.0,6.0,72,0.00,,,0.00,Wunderground v.1.15,2013-07-01 13:53:00,
2013-07-01 08:58:00,68.4,57.4,29.97,NNW,348,4.0,14.0,68,0.00,,,0.00,Wunderground v.1.15,2013-07-01 13:58:00,
2013-07-01 09:03:00,68.9,57.9,29.97,North,350,3.0,7.0,68,0.00,,,0.00,Wunderground v.1.15,2013-07-01 14:03:00,
2013-07-01 09:08:00,69.1,57.3,29.97,NNW,338,6.0,7.0,66,0.00,,,0.00,Wunderground v.1.15,2013-07-01 14:08:00,
2013-07-01 09:14:00,69.1,57.3,29.97,North,355,6.0,6.0,66,0.00,,,0.00,Wunderground v.1.15,2013-07-01 14:14:00,
2013-07-01 09:19:00,69.6,57.3,29.97,NNE,15,4.0,10.0,65,0.00,,,0.00,Wunderground v.1.15,2013-07-01 14:19:00,
2013-07-01 09:24:00,69.8,57.1,29.97,NNE,18,3.0,5.0,64,0.00,,,0.00,Wunderground v.1.15,2013-07-01 14:24:00,
2013-07-01 09:29:00,69.9,56.7,29.97,North,360,3.0,5.0,63,0.00,,,0.00,Wunderground v.1.15,2013-07-01 14:29:00,
2013-07-01 09:34:00,70.4,56.3,29.97,NNW,343,2.0,5.0,61,0.00,,,0.00,Wunderground v.1.15,2013-07-01 14:34:00,
2013-07-01 09:39:00,70.8,55.8,29.97,North,355,6.0,7.0,59,0.00,,,0.00,Wunderground v.1.15,2013-07-01 14:39:00,
2013-07-01 09:44:00,71.3,55.8,29.97,NNW,341,6.0,10.0,58,0.00,,,0.00,Wunderground v.1.15,2013-07-01 14:44:00,
2013-07-01 09:49:00,71.8,56.7,29.97,NNW,340,9.0,10.0,59,0.00,,,0.00,Wunderground v.1.15,2013-07-01 14:49:00,
2013-07-01 09:54:00,72.3,56.7,29.97,North,350,0.0,6.0,58,0.00,,,0.00,Wunderground v.1.15,2013-07-01 14:54:00,
2013-07-01 09:59:00,72.7,55.6,29.97,North,355,7.0,9.0,55,0.00,,,0.00,Wunderground v.1.15,2013-07-01 14:59:00,
2013-07-01 10:05:00,73.3,54.1,29.97,North,5,3.0,9.0,51,0.00,,,0.00,Wunderground v.1.15,2013-07-01 15:05:00,
2013-07-01 10:10:00,73.3,54.6,29.97,NNE,22,1.0,4.0,52,0.00,,,0.00,Wunderground v.1.15,2013-07-01 15:10:00,
2013-07-01 10:14:00,73.7,55.0,29.97,NNW,344,10.0,14.0,52,0.00,,,0.00,Wunderground v.1.15,2013-07-01 15:14:00,
2013-07-01 10:20:00,74.2,54.4,29.97,NNE,28,3.0,14.0,50,0.00,,,0.00,Wunderground v.1.15,2013-07-01 15:20:00,
2013-07-01 10:46:00,75.3,55.9,29.97,North,355,11.0,11.0,51,0.00,,,0.00,Wunderground v.1.15,2013-07-01 15:46:00,
2013-07-01 10:52:00,75.4,53.8,29.97,NNE,15,5.0,12.0,47,0.00,,,0.00,Wunderground v.1.15,2013-07-01 15:52:00,
2013-07-01 10:57:00,75.3,53.1,29.97,North,11,2.0,5.0,46,0.00,,,0.00,Wunderground v.1.15,2013-07-01 15:57:00,